Flugplatz Leipzig Halle

Bericht für EDDP

vom 25.10. um 15:20 UTC

Wind 6 kt aus 180°

Sichtweite 10 km oder mehr

gute Sicht, keine Wolken < 5000 ft, keine CB, keine Wettererscheinungen (CAVOK)

Temperatur 12.0°C

Taupunkt 6.0°C

Luftfeuchtigkeit 67%

Luftdruck 1019 hPa

keine wesentliche Wetteränderung innerhalb den nächsten 2 Stunden zu erwarten

EDDP 251520Z 18006KT CAVOK 12/06 Q1019 NOSIG

Prognose für EDDP

vom 25.10. um 11:00 UTC

Zwischen 12:00 UTC und 12:00 UTC

Wind 8 kt aus 210°

Sichtweite 10 km oder mehr

keine signifikanten Wettererscheinungen

keine Wolken

TAF EDDP 251100Z 2512/2612 21008KT CAVOK
Impressum